Flight Track Log - Related Links

Times and Time Zones

All times are in EDT time to prevent confusion due to time zone crossing. See the POE393 flight status page for this flight to view local times or setup timezone preferences in your user account.

Time Position Orientation Groundspeed Altitude Reporting Facility
EDT Latitude Longitude Course Direction KTS MPH feet Rate Location/Type
Thu 06:34:43 PM 43.6333 -79.3333 216° Southwest 120 138 1,800  Level Toronto Center
Thu 06:35:43 PM 43.6000 -79.3167 160° South 160 184 2,900 700 Climbing Toronto Center
Thu 06:36:43 PM 43.5667 -79.3500 216° Southwest 190 219 3,200 500 Climbing Toronto Center
Thu 06:37:43 PM 43.5333 -79.4333 241° Southwest 210 242 3,900 950 Climbing Toronto Center
Thu 06:38:00 PM 43.3140 -79.8369 224° Southwest  Level FlightAware Approximate
Thu 06:38:43 PM 43.4833 -79.4667 206° Southwest 220 253 5,100  Level Toronto Center
Thu 06:39:00 PM 43.2609 -79.9114 236° Southwest  Level FlightAware Approximate
Thu 06:39:43 PM 43.4333 -79.5167 216° Southwest 220 253 6,700  Level Toronto Center
Thu 06:40:00 PM 43.2113 -79.9887 216° Southwest  Level FlightAware Approximate
Thu 06:40:43 PM 43.4000 -79.5833 235° Southwest 230 265 8,100  Level Toronto Center
Thu 06:41:43 PM 43.3667 -79.6833 245° Southwest 240 276 9,700 1,500 Climbing Toronto Center
Thu 06:42:43 PM 43.3167 -79.7500 224° Southwest 250 288 11,100 1,550 Climbing Toronto Center
Thu 06:43:43 PM 43.2833 -79.8333 241° Southwest 260 299 12,800 1,200 Climbing Toronto Center
Thu 06:44:43 PM 43.2333 -79.9333 236° Southwest 280 322 13,500 850 Climbing Toronto Center
Thu 06:45:43 PM 43.2000 -80.0167 241° Southwest 290 334 14,500 1,050 Climbing Toronto Center
Thu 06:46:43 PM 43.1667 -80.1167 245° Southwest 290 334 15,600 1,050 Climbing Toronto Center
Thu 06:47:43 PM 43.1500 -80.2333 259° West 280 322 16,600 1,000 Climbing Toronto Center
Thu 06:48:43 PM 43.1167 -80.3167 241° Southwest 280 322 17,600 750 Climbing Toronto Center
Thu 06:49:43 PM 43.1000 -80.4333 259° West 280 322 18,100 800 Climbing Toronto Center
Thu 06:50:43 PM 43.0667 -80.5167 241° Southwest 280 322 19,200 1,050 Climbing Toronto Center
Thu 06:51:43 PM 43.0500 -80.6167 257° West 270 311 20,200 1,100 Climbing Toronto Center
Thu 06:52:43 PM 43.0333 -80.7333 259° West 270 311 21,400 900 Climbing Toronto Center
Thu 06:53:43 PM 42.9833 -80.8167 231° Southwest 260 299 22,000 300 Climbing Toronto Center
Thu 06:54:43 PM 42.9667 -80.9167 257° West 280 322 22,000  Level Toronto Center
Thu 06:55:43 PM 42.9333 -81.0167 246° West 290 334 22,000  Level Toronto Center
Thu 06:56:43 PM 42.9167 -81.1333 259° West 300 345 22,000  Level Toronto Center
Thu 06:57:43 PM 42.8833 -81.2500 249° West 310 357 22,000  Level Toronto Center
Thu 06:58:43 PM 42.8667 -81.3333 255° West 310 357 22,000  Level Toronto Center
Thu 06:59:30 PM 42.8558 -81.4414 262° West 307 353 22,000  Level Cleveland Center
Thu 07:00:32 PM 42.8258 -81.5533 250° West 310 357 22,000  Level Cleveland Center
Thu 07:01:34 PM 42.7972 -81.6658 251° West 310 357 22,000  Level Cleveland Center
Thu 07:02:36 PM 42.7583 -81.7947 248° West 311 358 22,000  Level Cleveland Center
Thu 07:03:38 PM 42.7258 -81.9031 248° West 311 358 22,000  Level Cleveland Center
Thu 07:04:40 PM 42.6922 -82.0122 247° West 312 359 22,000  Level Cleveland Center
Thu 07:05:43 PM 42.6586 -82.1219 247° West 314 361 22,000  Level Cleveland Center
Thu 07:06:45 PM 42.6256 -82.2317 248° West 314 361 22,000  Level Cleveland Center
Thu 07:07:47 PM 42.5922 -82.3408 248° West 314 361 22,000  Level Cleveland Center
Thu 07:08:49 PM 42.5581 -82.4506 247° West 314 361 22,000  Level Cleveland Center
Thu 07:09:51 PM 42.5175 -82.5814 247° West 315 362 22,000  Level Cleveland Center
Thu 07:10:53 PM 42.4828 -82.6897 247° West 315 362 22,000  Level Cleveland Center
Thu 07:11:55 PM 42.4489 -82.7978 247° West 313 360 22,000  Level Cleveland Center
Thu 07:12:57 PM 42.4150 -82.9069 247° West 313 360 22,000  Level Cleveland Center
Thu 07:14:00 PM 42.3806 -83.0158 247° West 314 361 22,000  Level Cleveland Center
Thu 07:15:02 PM 42.3389 -83.1458 247° West 314 361 22,000  Level Cleveland Center
Thu 07:16:04 PM 42.3025 -83.2586 246° West 314 361 22,000  Level Cleveland Center
Thu 07:17:06 PM 42.2675 -83.3692 247° West 316 364 22,000  Level Cleveland Center
Thu 07:18:08 PM 42.2322 -83.4792 247° West 316 364 22,000  Level Cleveland Center
Thu 07:19:10 PM 42.1961 -83.5903 246° West 316 364 22,000  Level Cleveland Center
Thu 07:20:12 PM 42.1608 -83.6981 246° West 316 364 22,000  Level Cleveland Center
Thu 07:21:14 PM 42.1261 -83.8064 247° West 315 362 22,000  Level Cleveland Center
Thu 07:22:17 PM 42.0906 -83.9144 246° West 315 362 22,000  Level Cleveland Center
Thu 07:23:19 PM 42.0556 -84.0197 246° West 313 360 22,000  Level Cleveland Center
Thu 07:24:21 PM 42.0144 -84.1450 246° West 306 352 22,000  Level Cleveland Center
Thu 07:25:23 PM 41.9803 -84.2497 246° West 305 351 22,000  Level Cleveland Center
Thu 07:26:25 PM 41.9436 -84.3594 246° West 305 351 22,000  Level Cleveland Center
Thu 07:27:27 PM 41.9078 -84.4633 245° Southwest 306 352 22,000  Level Cleveland Center
Thu 07:28:29 PM 41.8747 -84.5661 247° West 306 352 22,000  Level Cleveland Center
Thu 07:29:31 PM 41.8394 -84.6703 246° West 306 352 22,000  Level Cleveland Center
Thu 07:30:33 PM 41.8047 -84.7728 246° West 305 351 22,000  Level Cleveland Center
Thu 07:31:23 PM 41.7867 -84.8808 257° West 301 346 22,000  Level Chicago Center
Thu 07:32:25 PM 41.7672 -84.9911 257° West 302 348 22,000  Level Chicago Center
Thu 07:33:27 PM 41.7497 -85.1008 258° West 302 348 22,000  Level Chicago Center
Thu 07:34:29 PM 41.7314 -85.2111 257° West 303 349 22,000  Level Chicago Center
Thu 07:35:31 PM 41.7131 -85.3208 257° West 304 350 22,000 -290 Level Chicago Center
Thu 07:36:33 PM 41.6911 -85.4525 257° West 308 354 21,400 -864 Descending Chicago Center
Thu 07:37:36 PM 41.6711 -85.5589 256° West 306 352 20,200 -1,152 Descending Chicago Center
Thu 07:38:38 PM 41.6519 -85.6672 257° West 304 350 19,000 -1,210 Descending Chicago Center
Thu 07:39:40 PM 41.6322 -85.7806 257° West 310 357 17,700 -1,403 Descending Chicago Center
Thu 07:40:42 PM 41.6094 -85.9139 257° West 307 353 16,100 -1,452 Descending Chicago Center
Thu 07:41:44 PM 41.5906 -86.0172 256° West 288 331 14,700 -1,306 Descending Chicago Center
Thu 07:42:46 PM 41.5731 -86.1233 258° West 290 334 13,400 -1,113 Descending Chicago Center
Thu 07:43:48 PM 41.5686 -86.2364 267° West 301 346 12,400 -960 Descending Chicago Center
Thu 07:44:51 PM 41.5625 -86.3503 266° West 307 353 11,400 -960 Descending Chicago Center
Thu 07:45:53 PM 41.5558 -86.4636 266° West 307 353 10,400 -677 Descending Chicago Center
Thu 07:46:55 PM 41.5478 -86.5939 265° West 296 341 10,000 -194 Descending Chicago Center
Thu 07:47:57 PM 41.5422 -86.7106 266° West 289 333 10,000  Level Chicago Center
Thu 07:48:59 PM 41.5386 -86.8161 267° West 288 331 10,000  Level Chicago Center
Thu 07:50:01 PM 41.5328 -86.9144 266° West 267 307 10,000 -581 Level Chicago Center
Thu 07:51:03 PM 41.5267 -87.0169 265° West 261 300 8,800 -1,152 Descending Chicago Center
Thu 07:52:06 PM 41.5381 -87.1072 280° West 245 282 7,600 -1,104 Descending Chicago Center
Thu 07:53:08 PM 41.5581 -87.2017 286° West 246 283 6,500 -1,016 Descending Chicago Center
Thu 07:54:10 PM 41.5761 -87.2894 285° West 245 282 5,500 -1,016 Descending Chicago Center
Thu 07:55:12 PM 41.5953 -87.3842 285° West 245 282 4,400 -720 Descending Chicago Center
Thu 07:56:15 PM 41.6128 -87.4711 285° West 245 282 4,000 -194 Descending Chicago Center
Thu 07:57:16 PM 41.6442 -87.5517 298° West 233 268 4,000 -293 Level Chicago Center
Thu 07:58:18 PM 41.6867 -87.6142 312° West 228 262 3,400 -816 Descending Chicago Center
Thu 07:59:21 PM 41.7239 -87.6681 313° West 181 208 2,300 -960 Descending Chicago Center
Thu 08:00:23 PM 41.7553 -87.7106 315° West 161 185 1,400 -774 Descending Chicago Center
Thu 08:01:25 PM 41.7797 -87.7461 313° West 125 144 700 -677 Descending Chicago Center

Login

Don't have an account? Register now (free) for customized features, flight alerts, and more!